الصفحة الرئيسية
METAR-TAF:

METAR-TAF

مطار :

Vavaʻu, تونجا

دائرة عرض: 18-35-07S, خط طول: 173-57-42W, ارتفاع: 72 متر

مراقبة الطقس الحالي

تاريخ ووقت الإصدار 1ساعة و 10 دقيقة قبل الساعة 18:00UTC
ريح 6 عقدة من الجنوب الشرقي
درجة الحرارة 22°درجة مئوية
الرطوبة 73%
ضغط 1015 hPa
الرؤية 10 كم أو أكثر
غيوم متفرقة على ارتفاع 1700 قدم

METAR: NFTV 221800Z 13006KT 9999 SCT017 22/17 Q1015

زمن: 08:10 (19:10 UTC)

توقعات

تاريخ ووقت الإصدار 2ساعات و 2 دقيقة قبل الساعة 17:08UTC
التوقعات صالحة من22 الساعة 18 UTC إلى 23 الساعة 18 UTC
ريح 8 عقدة من الجنوب/الجنوب الشرقي
الرؤية 10 كم أو أكثر
غيوم متفرقة على ارتفاع 1700 قدم

TAF: NFTV 221708Z 2218/2318 15008KT 9999 SCT017

أرصاد الطقس والتوقعات من أكثر من 4000 مطار (تقارير الطقس للمطار METAR والتنبؤ بالطقس بالمطارTAF).

المحطات المتاحة هي النقط الصفراء والحمراء على الخريطة.

حرك المؤشر فوق النقطة لمعرفة اسم المحطة.

ثم انقر لمعرفة أرصاد وتوقعات الطقس.

لتغيير الخارطة: اضغط على الأزرار الخضراء مع رمز الصليب الأسود للتكبير. على الزر الأخضر مع شرطة للتصغير، أو على الأسهم الخضراء للخرائط المجاورة.


METAR-TAF: